Lawrenceville, GA (30042)

5:27 AM EST on March 05, 2015 (GMT -0500)
Gloster | Change Station
CLOSE
Current Station
Personal Weather Station
Location: Lawrenceville, GA
Elevation: 997 ft
Nearby Weather Stations
Active Advisory: Special Statement

Elev 997 ft 33.92 °N, 84.07 °W | Updated 50 seconds ago

Rain
Rain
64.9 °F
Feels Like 64.9 °F
N
3.7
Wind Variable Wind from South

Today
High -- | Low -- °F
--% Chance of Precip.
Yesterday
High -- | Low -- °F
Precip. -- in
7:00 AM 6:35 PM
Full, 100% visible
Pressure 29.83 in
Visibility 9.0 miles
Clouds Mostly Cloudy 1200 ft
Overcast 1700 ft
Dew Point 64 °F
Humidity 98%
Rainfall in
Snow Depth Not available.
UV 0 out of 12
Pollen 8.30 out of 12
Air Quality Not available.
Flu Activity Not available.
METAR KPDK 050953Z AUTO 19007KT 9SM BKN012 OVC017 18/18 A2986 RMK AO2 RAE20B37E50 SLP100 P0001 T01830178

More Conditions Fewer Conditions

Pressure 29.83 in
Visibility 9.0 miles
Clouds Mostly Cloudy 1200 ft
Overcast 1700 ft
Dew Point 64 °F
Humidity 98%
Rainfall in
Snow Depth Not available.
UV 0 out of 12
Pollen 8.30 out of 12
Air Quality Not available.
Flu Activity Not available.
METAR KPDK 050953Z AUTO 19007KT 9SM BKN012 OVC017 18/18 A2986 RMK AO2 RAE20B37E50 SLP100 P0001 T01830178

More Conditions Fewer Conditions

10-Day Weather Forecast

Almanac

Astronomy

Mar. 05, 2015 Rise Set
Actual Time
Civil Twilight
Nautical Twilight
Astronomical Twilight
Moon
Length of Visible Light
Length of Day
Tomorrow will be .
, % of the Moon is Illuminated

Today's Extremes

State Highs State Lows

Community

WunderPhotos

Upload Photos

1,802,714 photos uploaded!

WunderBlogs® & News

Nearby

Air Quality

  Air Quality AQ Index Pollutant
Not available.

Snow Depth

Station Depth Elevation

Earthquake Activity

City Distance Mag. Time & Date
Minimum magnitude displayed is 2.5.

Coastal Water Temperatures

Place Temperature

Nearby Weather Stations

Special Statement
Statement as of 3:49 AM EST on March 05, 2015

... Patchy black ice likely Thursday night into Friday morning...

As colder air spreads into the state this afternoon through tonight
and temperatures drop below freezing... patches of black ice are
likely to form creating slick spots on roads. Patchy black ice will
be possible north of a line from LaGrange... to Griffin... Covington
and Athens.

People traveling across north Georgia Thursday afternoon through
Friday morning should be prepared for slick spots on roads.




349 am EST Thu Mar 5 2015

... Patchy black ice likely Thursday night into Friday morning...

As colder air spreads into the state this afternoon through tonight
and temperatures drop below freezing... patches of black ice are
likely to form creating slick spots on roads. Patchy black ice will
be possible north of a line from LaGrange... to Griffin... Covington
and Athens.

People traveling across north Georgia Thursday afternoon through
Friday morning should be prepared for slick spots on roads.